Archival Weather

Chicago O'Hare International

Chicago, Illinois (KORD)

Report from: Tuesday, September 19, 2023 11:51 AM CDT
Current time: Tuesday, July 16, 2024 3:22 AM CDT

Current weather – Weather history – Daily summaries
Weather forecast

Present weatherLight rain
Temperature16.1°C (61.0°F)
Dew point13.3°C (55.9°F)
Winds Calm
Visibility9 mi. (14.5 km)
Clouds Ceiling: Broken clouds 5,500 ft. (1,676 m)
Overcast 8,000 ft. (2,438 m)
Altimeter30.05 in.Hg (1018 mB)
Precipitiation0.01 in. (0 mm)
Precip. events Rain began 4:03 PM
Relative humidity83 %
Density altitude195 ft. (60 m)
Sea-level pressure101.8 kPa (1018 mB, 30.05 in.Hg)
Remarks Automated weather observing station with precipitation discriminator
Flight conditions Visual Meteorological Conditions
Raw dataKORD 191651Z 00000KT 9SM -RA BKN055 OVC080 16/13 A3005 RMK AO2 RAB03 SLP176 P0001 T01610133
An error has occurred. This application may no longer respond until reloaded. Reload 🗙